sensor_id;sensor_type;location;lat;lon;timestamp;pressure;altitude;pressure_sealevel;temperature;humidity
8416;BME280;4245;42.120;24.732;2023-05-27T00:01:54;99180.94;;;17.44;100.00
8416;BME280;4245;42.120;24.732;2023-05-27T00:04:21;99183.72;;;17.52;100.00
8416;BME280;4245;42.120;24.732;2023-05-27T00:06:49;99177.59;;;17.60;100.00
8416;BME280;4245;42.120;24.732;2023-05-27T00:09:16;99167.94;;;17.67;100.00
8416;BME280;4245;42.120;24.732;2023-05-27T00:11:42;99175.22;;;17.74;100.00
8416;BME280;4245;42.120;24.732;2023-05-27T00:14:09;99174.13;;;17.67;100.00
8416;BME280;4245;42.120;24.732;2023-05-27T00:16:36;99168.75;;;17.85;100.00
8416;BME280;4245;42.120;24.732;2023-05-27T00:19:03;99160.69;;;17.85;100.00
8416;BME280;4245;42.120;24.732;2023-05-27T00:21:30;99158.75;;;17.77;100.00
8416;BME280;4245;42.120;24.732;2023-05-27T00:23:58;99157.91;;;17.77;100.00
8416;BME280;4245;42.120;24.732;2023-05-27T00:26:25;99154.13;;;17.62;100.00
8416;BME280;4245;42.120;24.732;2023-05-27T00:28:52;99149.28;;;17.65;100.00
8416;BME280;4245;42.120;24.732;2023-05-27T00:31:19;99150.19;;;17.74;100.00
8416;BME280;4245;42.120;24.732;2023-05-27T00:33:46;99148.50;;;17.73;100.00
8416;BME280;4245;42.120;24.732;2023-05-27T00:36:12;99144.09;;;17.72;100.00
8416;BME280;4245;42.120;24.732;2023-05-27T00:38:39;99145.13;;;17.71;100.00
8416;BME280;4245;42.120;24.732;2023-05-27T00:41:10;99142.69;;;17.60;100.00
8416;BME280;4245;42.120;24.732;2023-05-27T00:43:37;99138.44;;;17.75;100.00
8416;BME280;4245;42.120;24.732;2023-05-27T00:46:04;99134.91;;;17.74;100.00
8416;BME280;4245;42.120;24.732;2023-05-27T00:48:31;99137.75;;;17.73;100.00
8416;BME280;4245;42.120;24.732;2023-05-27T00:50:58;99134.16;;;17.64;100.00
8416;BME280;4245;42.120;24.732;2023-05-27T00:53:25;99129.22;;;17.77;100.00
8416;BME280;4245;42.120;24.732;2023-05-27T00:55:53;99134.53;;;17.69;100.00
8416;BME280;4245;42.120;24.732;2023-05-27T00:58:21;99128.69;;;17.74;100.00
8416;BME280;4245;42.120;24.732;2023-05-27T01:00:49;99128.16;;;17.70;100.00
8416;BME280;4245;42.120;24.732;2023-05-27T01:03:16;99134.06;;;17.74;100.00
8416;BME280;4245;42.120;24.732;2023-05-27T01:05:43;99127.22;;;17.79;100.00
8416;BME280;4245;42.120;24.732;2023-05-27T01:08:20;99121.91;;;17.88;100.00
8416;BME280;4245;42.120;24.732;2023-05-27T01:10:50;99114.34;;;17.91;100.00
8416;BME280;4245;42.120;24.732;2023-05-27T01:13:25;99118.59;;;17.94;100.00
8416;BME280;4245;42.120;24.732;2023-05-27T01:15:58;99119.09;;;17.97;100.00
8416;BME280;4245;42.120;24.732;2023-05-27T01:18:27;99119.44;;;17.94;100.00
8416;BME280;4245;42.120;24.732;2023-05-27T01:21:00;99126.41;;;17.87;100.00
8416;BME280;4245;42.120;24.732;2023-05-27T01:23:30;99128.97;;;17.89;100.00
8416;BME280;4245;42.120;24.732;2023-05-27T01:25:57;99132.06;;;18.02;100.00
8416;BME280;4245;42.120;24.732;2023-05-27T01:28:23;99141.31;;;17.99;100.00
8416;BME280;4245;42.120;24.732;2023-05-27T01:30:53;99133.13;;;18.09;100.00
8416;BME280;4245;42.120;24.732;2023-05-27T01:33:23;99127.88;;;17.99;100.00
8416;BME280;4245;42.120;24.732;2023-05-27T01:35:53;99126.75;;;18.10;100.00
8416;BME280;4245;42.120;24.732;2023-05-27T01:38:25;99124.59;;;18.13;100.00
8416;BME280;4245;42.120;24.732;2023-05-27T01:40:55;99126.16;;;18.24;100.00
8416;BME280;4245;42.120;24.732;2023-05-27T01:43:22;99115.19;;;18.17;100.00
8416;BME280;4245;42.120;24.732;2023-05-27T01:45:49;99121.28;;;18.19;100.00
8416;BME280;4245;42.120;24.732;2023-05-27T01:48:16;99120.13;;;18.30;100.00
8416;BME280;4245;42.120;24.732;2023-05-27T01:50:44;99119.72;;;18.17;100.00
8416;BME280;4245;42.120;24.732;2023-05-27T01:53:11;99118.47;;;18.29;100.00
8416;BME280;4245;42.120;24.732;2023-05-27T01:55:38;99117.63;;;18.29;100.00
8416;BME280;4245;42.120;24.732;2023-05-27T01:58:06;99116.28;;;18.33;100.00
8416;BME280;4245;42.120;24.732;2023-05-27T02:00:33;99111.91;;;18.32;100.00
8416;BME280;4245;42.120;24.732;2023-05-27T02:03:00;99116.81;;;18.36;100.00
8416;BME280;4245;42.120;24.732;2023-05-27T02:05:27;99113.75;;;18.31;100.00
8416;BME280;4245;42.120;24.732;2023-05-27T02:07:54;99116.16;;;18.42;100.00
8416;BME280;4245;42.120;24.732;2023-05-27T02:10:21;99121.06;;;18.47;100.00
8416;BME280;4245;42.120;24.732;2023-05-27T02:12:48;99117.03;;;18.51;100.00
8416;BME280;4245;42.120;24.732;2023-05-27T02:15:16;99111.63;;;18.43;100.00
8416;BME280;4245;42.120;24.732;2023-05-27T02:17:43;99116.66;;;18.38;100.00
8416;BME280;4245;42.120;24.732;2023-05-27T02:20:12;99116.69;;;18.46;100.00
8416;BME280;4245;42.120;24.732;2023-05-27T02:22:38;99111.59;;;18.35;100.00
8416;BME280;4245;42.120;24.732;2023-05-27T02:25:05;99104.84;;;18.31;100.00
8416;BME280;4245;42.120;24.732;2023-05-27T02:27:32;99104.22;;;18.37;100.00
8416;BME280;4245;42.120;24.732;2023-05-27T02:29:59;99109.44;;;18.38;100.00
8416;BME280;4245;42.120;24.732;2023-05-27T02:32:27;99111.59;;;18.35;100.00
8416;BME280;4245;42.120;24.732;2023-05-27T02:34:54;99104.56;;;18.42;100.00
8416;BME280;4245;42.120;24.732;2023-05-27T02:37:21;99110.47;;;18.45;100.00
8416;BME280;4245;42.120;24.732;2023-05-27T02:39:53;99107.16;;;18.25;100.00
8416;BME280;4245;42.120;24.732;2023-05-27T02:42:20;99107.53;;;18.31;100.00
8416;BME280;4245;42.120;24.732;2023-05-27T02:44:46;99107.38;;;18.32;100.00
8416;BME280;4245;42.120;24.732;2023-05-27T02:47:13;99106.09;;;18.44;100.00
8416;BME280;4245;42.120;24.732;2023-05-27T02:49:41;99113.81;;;18.39;100.00
8416;BME280;4245;42.120;24.732;2023-05-27T02:52:08;99113.47;;;18.42;100.00
8416;BME280;4245;42.120;24.732;2023-05-27T02:54:35;99112.19;;;18.54;100.00
8416;BME280;4245;42.120;24.732;2023-05-27T02:57:02;99109.50;;;18.54;100.00
8416;BME280;4245;42.120;24.732;2023-05-27T02:59:28;99114.34;;;18.51;100.00
8416;BME280;4245;42.120;24.732;2023-05-27T03:01:55;99121.66;;;18.58;100.00
8416;BME280;4245;42.120;24.732;2023-05-27T03:04:22;99119.38;;;18.46;100.00
8416;BME280;4245;42.120;24.732;2023-05-27T03:06:50;99120.00;;;18.40;100.00
8416;BME280;4245;42.120;24.732;2023-05-27T03:09:17;99123.81;;;18.55;100.00
8416;BME280;4245;42.120;24.732;2023-05-27T03:11:44;99120.13;;;18.56;100.00
8416;BME280;4245;42.120;24.732;2023-05-27T03:14:11;99132.19;;;18.86;100.00
8416;BME280;4245;42.120;24.732;2023-05-27T03:16:37;99122.53;;;18.75;100.00
8416;BME280;4245;42.120;24.732;2023-05-27T03:19:05;99128.88;;;18.58;100.00
8416;BME280;4245;42.120;24.732;2023-05-27T03:21:31;99128.03;;;18.57;100.00
8416;BME280;4245;42.120;24.732;2023-05-27T03:24:00;99133.94;;;18.69;100.00
8416;BME280;4245;42.120;24.732;2023-05-27T03:26:26;99132.44;;;18.58;100.00
8416;BME280;4245;42.120;24.732;2023-05-27T03:28:53;99132.78;;;18.63;100.00
8416;BME280;4245;42.120;24.732;2023-05-27T03:31:20;99136.13;;;18.65;100.00
8416;BME280;4245;42.120;24.732;2023-05-27T03:33:47;99132.50;;;18.83;100.00
8416;BME280;4245;42.120;24.732;2023-05-27T03:36:14;99135.72;;;18.94;100.00
8416;BME280;4245;42.120;24.732;2023-05-27T03:38:41;99139.59;;;18.92;100.00
8416;BME280;4245;42.120;24.732;2023-05-27T03:41:09;99137.13;;;19.06;100.00
8416;BME280;4245;42.120;24.732;2023-05-27T03:43:36;99136.91;;;18.92;100.00
8416;BME280;4245;42.120;24.732;2023-05-27T03:46:03;99146.19;;;19.05;100.00
8416;BME280;4245;42.120;24.732;2023-05-27T03:48:29;99143.84;;;19.10;100.00
8416;BME280;4245;42.120;24.732;2023-05-27T03:50:56;99151.06;;;19.02;100.00
8416;BME280;4245;42.120;24.732;2023-05-27T03:53:23;99148.19;;;18.95;100.00
8416;BME280;4245;42.120;24.732;2023-05-27T03:55:50;99155.63;;;19.01;100.00
8416;BME280;4245;42.120;24.732;2023-05-27T03:58:18;99147.53;;;19.01;100.00
8416;BME280;4245;42.120;24.732;2023-05-27T04:00:45;99159.66;;;19.14;100.00
8416;BME280;4245;42.120;24.732;2023-05-27T04:03:13;99155.28;;;19.13;100.00
8416;BME280;4245;42.120;24.732;2023-05-27T04:05:40;99162.69;;;19.10;100.00
8416;BME280;4245;42.120;24.732;2023-05-27T04:08:07;99163.56;;;19.19;100.00
8416;BME280;4245;42.120;24.732;2023-05-27T04:10:33;99161.56;;;19.21;100.00
8416;BME280;4245;42.120;24.732;2023-05-27T04:13:00;99166.59;;;19.24;100.00
8416;BME280;4245;42.120;24.732;2023-05-27T04:15:31;99164.09;;;19.31;100.00
8416;BME280;4245;42.120;24.732;2023-05-27T04:17:59;99166.09;;;19.29;100.00
8416;BME280;4245;42.120;24.732;2023-05-27T04:20:34;99173.25;;;19.46;100.00
8416;BME280;4245;42.120;24.732;2023-05-27T04:23:01;99164.31;;;19.45;100.00
8416;BME280;4245;42.120;24.732;2023-05-27T04:25:28;99169.72;;;19.53;100.00
8416;BME280;4245;42.120;24.732;2023-05-27T04:27:54;99173.94;;;19.64;100.00
8416;BME280;4245;42.120;24.732;2023-05-27T04:30:22;99167.19;;;19.76;100.00
8416;BME280;4245;42.120;24.732;2023-05-27T04:32:50;99174.41;;;19.76;99.85
8416;BME280;4245;42.120;24.732;2023-05-27T04:35:17;99170.22;;;19.73;99.61
8416;BME280;4245;42.120;24.732;2023-05-27T04:37:44;99163.97;;;19.81;99.97
8416;BME280;4245;42.120;24.732;2023-05-27T04:40:13;99173.25;;;19.86;99.88
8416;BME280;4245;42.120;24.732;2023-05-27T04:42:40;99168.19;;;19.91;98.72
8416;BME280;4245;42.120;24.732;2023-05-27T04:45:09;99167.03;;;19.94;98.79
8416;BME280;4245;42.120;24.732;2023-05-27T04:47:37;99172.56;;;20.01;97.68
8416;BME280;4245;42.120;24.732;2023-05-27T04:50:08;99179.31;;;20.13;97.09
8416;BME280;4245;42.120;24.732;2023-05-27T04:52:36;99177.78;;;20.18;97.24
8416;BME280;4245;42.120;24.732;2023-05-27T04:55:07;99182.66;;;20.31;96.29
8416;BME280;4245;42.120;24.732;2023-05-27T04:57:35;99185.69;;;20.36;96.50
8416;BME280;4245;42.120;24.732;2023-05-27T05:00:07;99190.09;;;20.37;96.43
8416;BME280;4245;42.120;24.732;2023-05-27T05:03:01;99179.59;;;20.50;95.89
8416;BME280;4245;42.120;24.732;2023-05-27T05:05:29;99176.53;;;20.61;96.15
8416;BME280;4245;42.120;24.732;2023-05-27T05:07:57;99183.47;;;20.95;95.49
8416;BME280;4245;42.120;24.732;2023-05-27T05:10:24;99178.78;;;21.28;92.34
8416;BME280;4245;42.120;24.732;2023-05-27T05:12:51;99183.53;;;21.48;90.17
8416;BME280;4245;42.120;24.732;2023-05-27T05:15:18;99182.63;;;21.56;89.47
8416;BME280;4245;42.120;24.732;2023-05-27T05:17:45;99187.03;;;21.57;89.34
8416;BME280;4245;42.120;24.732;2023-05-27T05:20:12;99193.34;;;21.72;87.38
8416;BME280;4245;42.120;24.732;2023-05-27T05:22:40;99195.19;;;21.72;86.25
8416;BME280;4245;42.120;24.732;2023-05-27T05:25:07;99188.88;;;21.56;86.66
8416;BME280;4245;42.120;24.732;2023-05-27T05:27:34;99194.22;;;21.64;85.59
8416;BME280;4245;42.120;24.732;2023-05-27T05:30:03;99200.84;;;21.62;84.59
8416;BME280;4245;42.120;24.732;2023-05-27T05:32:30;99193.22;;;21.65;83.85
8416;BME280;4245;42.120;24.732;2023-05-27T05:34:57;99209.16;;;21.83;84.50
8416;BME280;4245;42.120;24.732;2023-05-27T05:37:23;99197.41;;;21.91;83.59
8416;BME280;4245;42.120;24.732;2023-05-27T05:39:54;99199.66;;;21.87;82.52
8416;BME280;4245;42.120;24.732;2023-05-27T05:42:21;99203.91;;;21.82;82.30
8416;BME280;4245;42.120;24.732;2023-05-27T05:44:49;99200.69;;;21.63;83.23
8416;BME280;4245;42.120;24.732;2023-05-27T05:47:16;99213.16;;;21.87;83.01
8416;BME280;4245;42.120;24.732;2023-05-27T05:49:43;99205.47;;;22.22;78.93
8416;BME280;4245;42.120;24.732;2023-05-27T05:52:09;99202.47;;;22.17;80.31
8416;BME280;4245;42.120;24.732;2023-05-27T05:54:36;99205.19;;;22.31;78.26
8416;BME280;4245;42.120;24.732;2023-05-27T05:57:04;99217.31;;;22.21;79.20
8416;BME280;4245;42.120;24.732;2023-05-27T05:59:32;99198.28;;;22.29;77.03
8416;BME280;4245;42.120;24.732;2023-05-27T06:01:58;99199.72;;;22.02;76.98
8416;BME280;4245;42.120;24.732;2023-05-27T06:04:25;99216.66;;;21.96;77.05
8416;BME280;4245;42.120;24.732;2023-05-27T06:06:52;99216.59;;;22.04;74.51
8416;BME280;4245;42.120;24.732;2023-05-27T06:09:19;99212.31;;;22.09;75.07
8416;BME280;4245;42.120;24.732;2023-05-27T06:11:45;99219.72;;;21.93;76.84
8416;BME280;4245;42.120;24.732;2023-05-27T06:14:13;99223.31;;;22.08;75.52
8416;BME280;4245;42.120;24.732;2023-05-27T06:16:40;99216.25;;;22.07;75.38
8416;BME280;4245;42.120;24.732;2023-05-27T06:19:07;99218.69;;;21.94;76.07
8416;BME280;4245;42.120;24.732;2023-05-27T06:21:34;99225.13;;;21.93;77.03
8416;BME280;4245;42.120;24.732;2023-05-27T06:24:00;99231.06;;;21.88;78.44
8416;BME280;4245;42.120;24.732;2023-05-27T06:26:27;99234.97;;;22.08;77.74
8416;BME280;4245;42.120;24.732;2023-05-27T06:28:54;99235.34;;;22.05;78.40
8416;BME280;4245;42.120;24.732;2023-05-27T06:31:22;99241.78;;;22.04;78.32
8416;BME280;4245;42.120;24.732;2023-05-27T06:33:49;99234.50;;;22.05;79.30
8416;BME280;4245;42.120;24.732;2023-05-27T06:36:16;99235.53;;;22.04;79.92
8416;BME280;4245;42.120;24.732;2023-05-27T06:38:44;99232.44;;;21.84;81.07
8416;BME280;4245;42.120;24.732;2023-05-27T06:41:11;99238.59;;;21.78;81.11
8416;BME280;4245;42.120;24.732;2023-05-27T06:43:37;99233.81;;;21.80;81.75
8416;BME280;4245;42.120;24.732;2023-05-27T06:46:04;99241.31;;;21.70;82.11
8416;BME280;4245;42.120;24.732;2023-05-27T06:48:32;99242.47;;;21.76;82.32
8416;BME280;4245;42.120;24.732;2023-05-27T06:50:59;99241.03;;;21.65;84.38
8416;BME280;4245;42.120;24.732;2023-05-27T06:53:26;99250.19;;;21.87;83.98
8416;BME280;4245;42.120;24.732;2023-05-27T06:55:53;99244.22;;;21.68;84.69
8416;BME280;4245;42.120;24.732;2023-05-27T06:58:20;99243.63;;;21.58;86.03
8416;BME280;4245;42.120;24.732;2023-05-27T07:00:47;99243.63;;;21.58;85.92
8416;BME280;4245;42.120;24.732;2023-05-27T07:03:14;99240.63;;;21.45;87.73
8416;BME280;4245;42.120;24.732;2023-05-27T07:05:42;99248.81;;;21.60;86.85
8416;BME280;4245;42.120;24.732;2023-05-27T07:08:09;99250.50;;;21.61;86.19
8416;BME280;4245;42.120;24.732;2023-05-27T07:10:35;99249.78;;;21.44;86.58
8416;BME280;4245;42.120;24.732;2023-05-27T07:13:02;99247.16;;;21.28;87.98
8416;BME280;4245;42.120;24.732;2023-05-27T07:15:29;99248.69;;;21.22;89.09
8416;BME280;4245;42.120;24.732;2023-05-27T07:17:56;99245.69;;;21.17;89.59
8416;BME280;4245;42.120;24.732;2023-05-27T07:20:23;99249.56;;;21.07;91.06
8416;BME280;4245;42.120;24.732;2023-05-27T07:22:51;99240.97;;;21.19;91.26
8416;BME280;4245;42.120;24.732;2023-05-27T07:25:18;99249.69;;;21.30;90.58
8416;BME280;4245;42.120;24.732;2023-05-27T07:27:45;99246.19;;;21.13;92.36
8416;BME280;4245;42.120;24.732;2023-05-27T07:30:12;99249.50;;;21.31;91.78
8416;BME280;4245;42.120;24.732;2023-05-27T07:32:39;99259.59;;;21.37;91.54
8416;BME280;4245;42.120;24.732;2023-05-27T07:35:06;99258.94;;;21.35;92.06
8416;BME280;4245;42.120;24.732;2023-05-27T07:37:33;99263.16;;;21.68;96.67
8416;BME280;4245;42.120;24.732;2023-05-27T07:40:01;99270.13;;;21.63;92.70
8416;BME280;4245;42.120;24.732;2023-05-27T07:42:29;99261.19;;;21.54;90.65
8416;BME280;4245;42.120;24.732;2023-05-27T07:44:56;99255.50;;;21.02;100.00
8416;BME280;4245;42.120;24.732;2023-05-27T07:47:23;99249.47;;;20.92;98.69
8416;BME280;4245;42.120;24.732;2023-05-27T07:49:50;99261.84;;;20.70;100.00
8416;BME280;4245;42.120;24.732;2023-05-27T07:52:17;99261.34;;;20.75;100.00
8416;BME280;4245;42.120;24.732;2023-05-27T07:54:44;99252.16;;;20.92;99.64
8416;BME280;4245;42.120;24.732;2023-05-27T07:57:12;99248.13;;;20.88;100.00
8416;BME280;4245;42.120;24.732;2023-05-27T07:59:39;99257.72;;;20.99;100.00
8416;BME280;4245;42.120;24.732;2023-05-27T08:02:06;99249.41;;;21.16;99.58
8416;BME280;4245;42.120;24.732;2023-05-27T08:04:33;99262.00;;;21.32;99.64
8416;BME280;4245;42.120;24.732;2023-05-27T08:07:00;99246.47;;;21.26;100.00
8416;BME280;4245;42.120;24.732;2023-05-27T08:09:27;99268.41;;;21.39;100.00
8416;BME280;4245;42.120;24.732;2023-05-27T08:11:53;99262.56;;;21.50;100.00
8416;BME280;4245;42.120;24.732;2023-05-27T08:14:22;99258.72;;;21.45;100.00
8416;BME280;4245;42.120;24.732;2023-05-27T08:16:50;99268.25;;;21.63;99.24
8416;BME280;4245;42.120;24.732;2023-05-27T08:19:16;99270.47;;;21.29;100.00
8416;BME280;4245;42.120;24.732;2023-05-27T08:21:43;99266.06;;;21.28;100.00
8416;BME280;4245;42.120;24.732;2023-05-27T08:24:10;99269.16;;;21.17;100.00
8416;BME280;4245;42.120;24.732;2023-05-27T08:26:37;99271.22;;;21.15;100.00
8416;BME280;4245;42.120;24.732;2023-05-27T08:29:04;99271.50;;;21.12;100.00
8416;BME280;4245;42.120;24.732;2023-05-27T08:31:33;99274.97;;;20.90;100.00
8416;BME280;4245;42.120;24.732;2023-05-27T08:34:00;99275.09;;;20.96;100.00
8416;BME280;4245;42.120;24.732;2023-05-27T08:36:26;99268.56;;;20.91;100.00
8416;BME280;4245;42.120;24.732;2023-05-27T08:38:53;99271.06;;;20.92;100.00
8416;BME280;4245;42.120;24.732;2023-05-27T08:41:20;99269.31;;;21.07;100.00
8416;BME280;4245;42.120;24.732;2023-05-27T08:43:48;99274.72;;;21.07;100.00
8416;BME280;4245;42.120;24.732;2023-05-27T08:46:16;99276.59;;;21.07;100.00
8416;BME280;4245;42.120;24.732;2023-05-27T08:48:45;99281.34;;;21.05;100.00
8416;BME280;4245;42.120;24.732;2023-05-27T08:51:13;99272.56;;;21.03;100.00
8416;BME280;4245;42.120;24.732;2023-05-27T08:53:41;99271.69;;;21.10;100.00
8416;BME280;4245;42.120;24.732;2023-05-27T08:56:08;99268.66;;;21.13;100.00
8416;BME280;4245;42.120;24.732;2023-05-27T08:58:39;99276.53;;;21.31;100.00
8416;BME280;4245;42.120;24.732;2023-05-27T09:01:07;99268.72;;;21.44;100.00
8416;BME280;4245;42.120;24.732;2023-05-27T09:03:34;99274.13;;;21.36;100.00
8416;BME280;4245;42.120;24.732;2023-05-27T09:06:03;99269.59;;;21.67;99.32
8416;BME280;4245;42.120;24.732;2023-05-27T09:08:30;99268.91;;;21.65;97.51
8416;BME280;4245;42.120;24.732;2023-05-27T09:10:58;99275.16;;;21.66;97.88
8416;BME280;4245;42.120;24.732;2023-05-27T09:13:26;99277.03;;;21.96;98.50
8416;BME280;4245;42.120;24.732;2023-05-27T09:16:00;99271.63;;;22.34;92.84
8416;BME280;4245;42.120;24.732;2023-05-27T09:18:28;99269.19;;;22.24;89.76
8416;BME280;4245;42.120;24.732;2023-05-27T09:20:55;99276.94;;;22.27;89.43
8416;BME280;4245;42.120;24.732;2023-05-27T09:23:24;99270.75;;;22.19;88.82
8416;BME280;4245;42.120;24.732;2023-05-27T09:25:51;99268.59;;;22.14;87.76
8416;BME280;4245;42.120;24.732;2023-05-27T09:28:22;99270.03;;;22.25;90.36
8416;BME280;4245;42.120;24.732;2023-05-27T09:30:58;99262.78;;;22.40;88.63
8416;BME280;4245;42.120;24.732;2023-05-27T09:33:26;99260.53;;;22.29;91.08
8416;BME280;4245;42.120;24.732;2023-05-27T09:35:54;99261.25;;;22.23;93.41
8416;BME280;4245;42.120;24.732;2023-05-27T09:38:20;99260.41;;;22.22;92.90
8416;BME280;4245;42.120;24.732;2023-05-27T09:40:49;99263.84;;;22.16;89.28
8416;BME280;4245;42.120;24.732;2023-05-27T09:43:15;99260.00;;;22.10;92.56
8416;BME280;4245;42.120;24.732;2023-05-27T09:45:43;99256.91;;;21.91;98.13
8416;BME280;4245;42.120;24.732;2023-05-27T09:48:12;99256.56;;;21.94;100.00
8416;BME280;4245;42.120;24.732;2023-05-27T09:50:39;99256.06;;;21.90;100.00
8416;BME280;4245;42.120;24.732;2023-05-27T09:53:07;99253.97;;;21.78;100.00
8416;BME280;4245;42.120;24.732;2023-05-27T09:55:34;99254.75;;;21.86;100.00
8416;BME280;4245;42.120;24.732;2023-05-27T09:58:02;99244.31;;;21.83;100.00
8416;BME280;4245;42.120;24.732;2023-05-27T10:00:29;99250.19;;;21.87;100.00
8416;BME280;4245;42.120;24.732;2023-05-27T10:02:59;99254.75;;;21.86;100.00
8416;BME280;4245;42.120;24.732;2023-05-27T10:05:28;99250.75;;;21.74;100.00
8416;BME280;4245;42.120;24.732;2023-05-27T10:07:55;99250.75;;;21.74;100.00
8416;BME280;4245;42.120;24.732;2023-05-27T10:10:23;99246.88;;;21.77;99.19
8416;BME280;4245;42.120;24.732;2023-05-27T10:12:54;99249.50;;;21.85;100.00
8416;BME280;4245;42.120;24.732;2023-05-27T10:15:26;99253.38;;;21.90;100.00
8416;BME280;4245;42.120;24.732;2023-05-27T10:17:54;99247.75;;;22.00;100.00
8416;BME280;4245;42.120;24.732;2023-05-27T10:20:26;99244.50;;;22.04;100.00
8416;BME280;4245;42.120;24.732;2023-05-27T10:22:53;99243.44;;;22.28;100.00
8416;BME280;4245;42.120;24.732;2023-05-27T10:25:20;99240.16;;;22.56;100.00
8416;BME280;4245;42.120;24.732;2023-05-27T10:27:47;99243.78;;;22.63;97.93
8416;BME280;4245;42.120;24.732;2023-05-27T10:30:15;99243.81;;;22.92;99.81
8416;BME280;4245;42.120;24.732;2023-05-27T10:32:47;99238.56;;;23.05;93.18
8416;BME280;4245;42.120;24.732;2023-05-27T10:35:15;99240.81;;;23.46;89.77
8416;BME280;4245;42.120;24.732;2023-05-27T10:37:42;99236.56;;;23.43;85.11
8416;BME280;4245;42.120;24.732;2023-05-27T10:40:10;99240.31;;;23.78;87.62
8416;BME280;4245;42.120;24.732;2023-05-27T10:42:38;99233.66;;;24.02;83.01
8416;BME280;4245;42.120;24.732;2023-05-27T10:45:06;99224.63;;;24.93;79.14
8416;BME280;4245;42.120;24.732;2023-05-27T10:47:37;99221.63;;;25.96;69.79
8416;BME280;4245;42.120;24.732;2023-05-27T10:50:12;99229.84;;;26.55;62.34
8416;BME280;4245;42.120;24.732;2023-05-27T10:52:40;99225.66;;;26.46;64.10
8416;BME280;4245;42.120;24.732;2023-05-27T10:55:08;99227.31;;;26.87;55.45
8416;BME280;4245;42.120;24.732;2023-05-27T10:57:35;99224.53;;;27.00;52.97
8416;BME280;4245;42.120;24.732;2023-05-27T11:00:04;99230.22;;;26.92;54.37
8416;BME280;4245;42.120;24.732;2023-05-27T11:02:35;99219.06;;;27.06;52.13
8416;BME280;4245;42.120;24.732;2023-05-27T11:05:08;99216.44;;;27.31;53.45
8416;BME280;4245;42.120;24.732;2023-05-27T11:07:38;99217.22;;;28.21;49.49
8416;BME280;4245;42.120;24.732;2023-05-27T11:10:07;99207.28;;;28.94;46.11
8416;BME280;4245;42.120;24.732;2023-05-27T11:12:36;99215.25;;;28.95;45.20
8416;BME280;4245;42.120;24.732;2023-05-27T11:15:09;99210.78;;;29.38;44.42
8416;BME280;4245;42.120;24.732;2023-05-27T11:17:37;99206.88;;;29.93;42.71
8416;BME280;4245;42.120;24.732;2023-05-27T11:20:06;99205.28;;;30.85;41.22
8416;BME280;4245;42.120;24.732;2023-05-27T11:22:34;99207.59;;;31.97;39.19
8416;BME280;4245;42.120;24.732;2023-05-27T11:25:05;99199.19;;;31.58;38.46
8416;BME280;4245;42.120;24.732;2023-05-27T11:27:36;99195.75;;;29.88;40.24
8416;BME280;4245;42.120;24.732;2023-05-27T11:30:07;99190.25;;;29.28;43.09
8416;BME280;4245;42.120;24.732;2023-05-27T11:32:39;99191.88;;;29.96;41.26
8416;BME280;4245;42.120;24.732;2023-05-27T11:35:12;99201.75;;;30.61;38.46
8416;BME280;4245;42.120;24.732;2023-05-27T11:37:45;99199.31;;;31.00;38.00
8416;BME280;4245;42.120;24.732;2023-05-27T11:40:14;99191.88;;;31.24;37.08
8416;BME280;4245;42.120;24.732;2023-05-27T11:42:45;99194.78;;;31.57;35.50
8416;BME280;4245;42.120;24.732;2023-05-27T11:45:17;99188.31;;;30.07;37.17
8416;BME280;4245;42.120;24.732;2023-05-27T11:47:55;99183.19;;;29.39;39.77
8416;BME280;4245;42.120;24.732;2023-05-27T11:50:22;99183.56;;;30.14;38.92
8416;BME280;4245;42.120;24.732;2023-05-27T11:52:53;99180.75;;;30.67;37.59
8416;BME280;4245;42.120;24.732;2023-05-27T11:55:21;99181.00;;;30.77;36.65
8416;BME280;4245;42.120;24.732;2023-05-27T11:57:48;99187.66;;;30.70;36.74
8416;BME280;4245;42.120;24.732;2023-05-27T12:00:17;99175.72;;;31.11;36.74
8416;BME280;4245;42.120;24.732;2023-05-27T12:02:45;99183.41;;;32.44;34.47
8416;BME280;4245;42.120;24.732;2023-05-27T12:05:12;99178.69;;;31.77;34.28
8416;BME280;4245;42.120;24.732;2023-05-27T12:07:39;99166.09;;;30.73;37.06
8416;BME280;4245;42.120;24.732;2023-05-27T12:10:07;99167.78;;;30.74;37.34
8416;BME280;4245;42.120;24.732;2023-05-27T12:12:39;99165.03;;;30.62;37.24
8416;BME280;4245;42.120;24.732;2023-05-27T12:15:09;99161.41;;;30.85;37.46
8416;BME280;4245;42.120;24.732;2023-05-27T12:17:37;99159.75;;;30.38;38.25
8416;BME280;4245;42.120;24.732;2023-05-27T12:20:06;99151.56;;;30.49;38.27
8416;BME280;4245;42.120;24.732;2023-05-27T12:22:34;99153.69;;;30.82;36.62
8416;BME280;4245;42.120;24.732;2023-05-27T12:25:00;99155.25;;;30.67;37.51
8416;BME280;4245;42.120;24.732;2023-05-27T12:27:27;99159.38;;;30.92;37.41
8416;BME280;4245;42.120;24.732;2023-05-27T12:29:56;99146.47;;;31.44;35.81
8416;BME280;4245;42.120;24.732;2023-05-27T12:32:22;99152.66;;;31.80;35.22
8416;BME280;4245;42.120;24.732;2023-05-27T12:34:50;99155.63;;;31.78;35.82
8416;BME280;4245;42.120;24.732;2023-05-27T12:37:16;99136.91;;;31.92;35.53
8416;BME280;4245;42.120;24.732;2023-05-27T12:39:43;99141.59;;;32.25;35.12
8416;BME280;4245;42.120;24.732;2023-05-27T12:42:10;99137.34;;;32.67;33.98
8416;BME280;4245;42.120;24.732;2023-05-27T12:44:37;99134.53;;;32.12;34.21
8416;BME280;4245;42.120;24.732;2023-05-27T12:47:05;99123.84;;;31.66;34.91
8416;BME280;4245;42.120;24.732;2023-05-27T12:49:32;99115.66;;;30.74;37.14
8416;BME280;4245;42.120;24.732;2023-05-27T12:51:59;99105.78;;;30.61;37.23
8416;BME280;4245;42.120;24.732;2023-05-27T12:54:26;99102.19;;;30.73;36.95
8416;BME280;4245;42.120;24.732;2023-05-27T12:56:54;99096.00;;;30.07;39.01
8416;BME280;4245;42.120;24.732;2023-05-27T12:59:21;99090.50;;;30.31;39.25
8416;BME280;4245;42.120;24.732;2023-05-27T13:01:48;99083.94;;;30.67;38.31
8416;BME280;4245;42.120;24.732;2023-05-27T13:04:16;99082.41;;;30.36;38.96
8416;BME280;4245;42.120;24.732;2023-05-27T13:06:43;99084.53;;;29.87;39.70
8416;BME280;4245;42.120;24.732;2023-05-27T13:09:10;99077.06;;;29.41;41.76